Stella Niagara, NY

10:33 AM EST on January 25, 2015 (GMT -0500)
Tall Oaks Subdivision- Town of Lewiston, NY | Change Station
CLOSE
Current Station
Personal Weather Station
Location: Lewiston, NY
Elevation: 355 ft
Nearby Weather Stations

Elev 355 ft 43.18 °N, 79.04 °W | Updated 15 seconds ago

Overcast
Overcast
16.2 °F
Feels Like 16 °F
N
2.0
Wind Variable Wind from NNE
Gusts 5.0 mph

Today
High -- | Low -- °F
--% Chance of Precip.
Yesterday
High -- | Low -- °F
Precip. -- in
7:38 AM 5:18 PM
Waxing Crescent, 33% visible
Pressure 29.96 in
Visibility 10.0 miles
Clouds Mostly Cloudy 1500 ft
Windchill 16 °F
Dew Point 9 °F
Humidity 73%
Rainfall 0.00 in
Snow Depth Not available.
UV 0.0 out of 12
Pollen .10 out of 12
Air Quality Not available.
Flu Activity Not available.
METAR KIAG 251453Z 01011KT 10SM -SN BKN015 M09/M12 A2991 RMK AO2 SLP146 P0000 60000 T10891122 53030 $

More Conditions Fewer Conditions

Pressure 29.96 in
Visibility 10.0 miles
Clouds Mostly Cloudy 1500 ft
Windchill 16 °F
Dew Point 9 °F
Humidity 73%
Rainfall 0.00 in
Snow Depth Not available.
UV 0.0 out of 12
Pollen .10 out of 12
Air Quality Not available.
Flu Activity Not available.
METAR KIAG 251453Z 01011KT 10SM -SN BKN015 M09/M12 A2991 RMK AO2 SLP146 P0000 60000 T10891122 53030 $

More Conditions Fewer Conditions

10-Day Weather Forecast

Almanac

Astronomy

Jan. 25, 2015 Rise Set
Actual Time
Civil Twilight
Nautical Twilight
Astronomical Twilight
Moon
Length of Visible Light
Length of Day
Tomorrow will be .
, % of the Moon is Illuminated

Today's Extremes

State Highs State Lows

Community

WunderPhotos

Upload Photos

1,789,923 photos uploaded!

WunderBlogs® & News

Nearby

Air Quality

  Air Quality AQ Index Pollutant
Not available.

Snow Depth

Station Depth Elevation

Earthquake Activity

City Distance Mag. Time & Date
Minimum magnitude displayed is 2.5.

Coastal Water Temperatures

Place Temperature

Nearby Weather Stations